sensor_id;sensor_type;location;lat;lon;timestamp;pressure;altitude;pressure_sealevel;temperature;humidity
52032;BME280;38044;45.148;39.604;2023-02-19T00:01:30;100464.72;;;4.26;87.75
52032;BME280;38044;45.148;39.604;2023-02-19T00:03:59;100612.09;;;5.29;87.92
52032;BME280;38044;45.148;39.604;2023-02-19T00:06:27;100570.28;;;4.97;87.86
52032;BME280;38044;45.148;39.604;2023-02-19T00:08:54;100454.56;;;4.23;87.77
52032;BME280;38044;45.148;39.604;2023-02-19T00:11:22;100505.69;;;4.53;88.04
52032;BME280;38044;45.148;39.604;2023-02-19T00:13:50;100608.56;;;5.18;88.13
52032;BME280;38044;45.148;39.604;2023-02-19T00:16:19;100486.78;;;4.54;87.65
52032;BME280;38044;45.148;39.604;2023-02-19T00:18:45;100586.13;;;5.14;87.70
52032;BME280;38044;45.148;39.604;2023-02-19T00:21:12;100510.41;;;4.72;87.28
52032;BME280;38044;45.148;39.604;2023-02-19T00:23:38;100571.41;;;5.06;87.14
52032;BME280;38044;45.148;39.604;2023-02-19T00:26:05;100603.06;;;5.30;87.19
52032;BME280;38044;45.148;39.604;2023-02-19T00:28:32;100502.88;;;4.64;87.12
52032;BME280;38044;45.148;39.604;2023-02-19T00:31:13;100609.53;;;5.39;87.18
52032;BME280;38044;45.148;39.604;2023-02-19T00:33:40;100432.78;;;4.26;86.57
52032;BME280;38044;45.148;39.604;2023-02-19T00:36:06;100593.25;;;5.35;86.54
52032;BME280;38044;45.148;39.604;2023-02-19T00:38:35;100586.63;;;5.38;86.18
52032;BME280;38044;45.148;39.604;2023-02-19T00:41:03;100589.19;;;5.28;86.27
52032;BME280;38044;45.148;39.604;2023-02-19T00:43:49;100565.72;;;5.25;86.00
52032;BME280;38044;45.148;39.604;2023-02-19T00:46:18;100591.34;;;5.31;85.96
52032;BME280;38044;45.148;39.604;2023-02-19T00:48:44;100582.28;;;5.32;85.94
52032;BME280;38044;45.148;39.604;2023-02-19T00:51:10;100564.53;;;5.10;85.63
52032;BME280;38044;45.148;39.604;2023-02-19T00:53:36;100550.09;;;5.06;85.44
52032;BME280;38044;45.148;39.604;2023-02-19T00:56:02;100549.63;;;5.14;85.49
52032;BME280;38044;45.148;39.604;2023-02-19T00:58:28;100533.56;;;5.04;85.57
52032;BME280;38044;45.148;39.604;2023-02-19T01:00:54;100418.00;;;4.41;85.17
52032;BME280;38044;45.148;39.604;2023-02-19T01:03:20;100383.81;;;4.27;84.91
52032;BME280;38044;45.148;39.604;2023-02-19T01:05:48;100533.78;;;5.30;84.78
52032;BME280;38044;45.148;39.604;2023-02-19T01:08:14;100462.06;;;4.91;84.50
52032;BME280;38044;45.148;39.604;2023-02-19T01:10:40;100542.41;;;5.47;84.42
52032;BME280;38044;45.148;39.604;2023-02-19T01:13:06;100525.34;;;5.48;83.72
52032;BME280;38044;45.148;39.604;2023-02-19T01:15:32;100539.81;;;5.62;83.60
52032;BME280;38044;45.148;39.604;2023-02-19T01:17:58;100491.31;;;5.23;83.25
52032;BME280;38044;45.148;39.604;2023-02-19T01:20:24;100442.91;;;4.94;83.23
52032;BME280;38044;45.148;39.604;2023-02-19T01:22:52;100517.94;;;5.55;82.86
52032;BME280;38044;45.148;39.604;2023-02-19T01:25:18;100510.66;;;5.46;82.58
52032;BME280;38044;45.148;39.604;2023-02-19T01:27:44;100406.28;;;4.74;82.27
52032;BME280;38044;45.148;39.604;2023-02-19T01:30:10;100439.69;;;4.87;82.05
52032;BME280;38044;45.148;39.604;2023-02-19T01:32:37;100556.88;;;5.56;82.26
52032;BME280;38044;45.148;39.604;2023-02-19T01:35:03;100566.72;;;5.56;81.82
52032;BME280;38044;45.148;39.604;2023-02-19T01:37:28;100554.75;;;5.58;81.83
52032;BME280;38044;45.148;39.604;2023-02-19T01:39:54;100571.28;;;5.55;81.74
52032;BME280;38044;45.148;39.604;2023-02-19T01:42:20;100530.63;;;5.43;81.34
52032;BME280;38044;45.148;39.604;2023-02-19T01:47:14;100546.72;;;5.53;81.54
52032;BME280;38044;45.148;39.604;2023-02-19T01:49:44;100523.13;;;5.35;81.34
52032;BME280;38044;45.148;39.604;2023-02-19T01:52:19;100557.63;;;5.47;80.77
52032;BME280;38044;45.148;39.604;2023-02-19T01:54:47;100551.25;;;5.53;80.68
52032;BME280;38044;45.148;39.604;2023-02-19T01:57:26;100537.59;;;5.44;80.80
52032;BME280;38044;45.148;39.604;2023-02-19T01:59:57;100525.78;;;5.30;80.68
52032;BME280;38044;45.148;39.604;2023-02-19T02:02:26;100569.34;;;5.51;80.58
52032;BME280;38044;45.148;39.604;2023-02-19T02:04:54;100559.41;;;5.36;80.79
52032;BME280;38044;45.148;39.604;2023-02-19T02:07:20;100429.34;;;4.58;80.86
52032;BME280;38044;45.148;39.604;2023-02-19T02:10:05;100580.78;;;5.46;81.07
52032;BME280;38044;45.148;39.604;2023-02-19T02:12:56;100432.19;;;4.51;81.06
52032;BME280;38044;45.148;39.604;2023-02-19T02:15:42;100573.56;;;5.41;81.17
52032;BME280;38044;45.148;39.604;2023-02-19T02:18:25;100585.72;;;5.27;81.26
52032;BME280;38044;45.148;39.604;2023-02-19T02:31:57;100587.59;;;5.27;82.16
52032;BME280;38044;45.148;39.604;2023-02-19T02:34:32;100579.00;;;5.19;81.82
52032;BME280;38044;45.148;39.604;2023-02-19T02:37:00;100582.72;;;5.18;81.93
52032;BME280;38044;45.148;39.604;2023-02-19T02:39:30;100553.78;;;5.00;82.25
52032;BME280;38044;45.148;39.604;2023-02-19T02:41:58;100548.16;;;4.96;82.12
52032;BME280;38044;45.148;39.604;2023-02-19T02:44:43;100577.06;;;5.15;82.02
52032;BME280;38044;45.148;39.604;2023-02-19T02:47:36;100486.94;;;4.69;81.57
52032;BME280;38044;45.148;39.604;2023-02-19T02:50:23;100557.44;;;5.26;81.38
52032;BME280;38044;45.148;39.604;2023-02-19T02:52:55;100381.78;;;4.07;80.91
52032;BME280;38044;45.148;39.604;2023-02-19T02:55:46;100537.94;;;5.15;81.12
52032;BME280;38044;45.148;39.604;2023-02-19T02:58:13;100572.91;;;5.29;81.01
52032;BME280;38044;45.148;39.604;2023-02-19T03:00:43;100575.09;;;5.32;80.55
52032;BME280;38044;45.148;39.604;2023-02-19T03:03:29;100537.94;;;5.20;80.33
52032;BME280;38044;45.148;39.604;2023-02-19T03:06:01;100548.25;;;5.44;80.01
52032;BME280;38044;45.148;39.604;2023-02-19T03:08:32;100516.72;;;5.31;79.51
52032;BME280;38044;45.148;39.604;2023-02-19T03:11:05;100530.19;;;5.56;79.43
52032;BME280;38044;45.148;39.604;2023-02-19T03:14:03;100405.19;;;4.70;79.66
52032;BME280;38044;45.148;39.604;2023-02-19T03:16:50;100464.81;;;5.01;79.58
52032;BME280;38044;45.148;39.604;2023-02-19T03:19:40;100454.13;;;4.96;79.63
52032;BME280;38044;45.148;39.604;2023-02-19T03:22:14;100482.03;;;5.26;79.49
52032;BME280;38044;45.148;39.604;2023-02-19T03:24:48;100498.09;;;5.36;79.24
52032;BME280;38044;45.148;39.604;2023-02-19T03:27:33;100516.28;;;5.44;79.10
52032;BME280;38044;45.148;39.604;2023-02-19T03:30:07;100504.97;;;5.32;79.30
52032;BME280;38044;45.148;39.604;2023-02-19T03:32:43;100401.75;;;4.69;79.13
52032;BME280;38044;45.148;39.604;2023-02-19T03:35:20;100495.38;;;5.31;79.22
52032;BME280;38044;45.148;39.604;2023-02-19T03:43:45;100480.91;;;5.16;79.30
52032;BME280;38044;45.148;39.604;2023-02-19T03:48:55;100493.28;;;5.33;79.27
52032;BME280;38044;45.148;39.604;2023-02-19T03:57:27;100519.56;;;5.61;78.64
52032;BME280;38044;45.148;39.604;2023-02-19T04:00:37;100500.91;;;5.61;78.70
52032;BME280;38044;45.148;39.604;2023-02-19T04:03:13;100449.50;;;5.24;78.94
52032;BME280;38044;45.148;39.604;2023-02-19T04:05:46;100501.63;;;5.52;78.90
52032;BME280;38044;45.148;39.604;2023-02-19T04:08:16;100514.22;;;5.61;78.91
52032;BME280;38044;45.148;39.604;2023-02-19T04:10:44;100517.66;;;5.57;79.11
52032;BME280;38044;45.148;39.604;2023-02-19T04:13:18;100515.59;;;5.64;78.79
52032;BME280;38044;45.148;39.604;2023-02-19T04:15:47;100481.56;;;5.39;78.60
52032;BME280;38044;45.148;39.604;2023-02-19T04:18:18;100373.81;;;4.77;78.41
52032;BME280;38044;45.148;39.604;2023-02-19T04:20:46;100361.81;;;4.74;78.09
52032;BME280;38044;45.148;39.604;2023-02-19T04:23:18;100499.38;;;5.76;78.37
52032;BME280;38044;45.148;39.604;2023-02-19T04:25:50;100493.94;;;5.60;78.18
52032;BME280;38044;45.148;39.604;2023-02-19T04:28:17;100489.44;;;5.66;78.15
52032;BME280;38044;45.148;39.604;2023-02-19T04:30:43;100527.13;;;5.80;78.18
52032;BME280;38044;45.148;39.604;2023-02-19T04:33:09;100506.78;;;5.69;78.31
52032;BME280;38044;45.148;39.604;2023-02-19T04:35:35;100519.69;;;5.87;78.25
52032;BME280;38044;45.148;39.604;2023-02-19T04:38:01;100499.63;;;5.74;78.05
52032;BME280;38044;45.148;39.604;2023-02-19T04:40:27;100370.75;;;4.95;78.03
52032;BME280;38044;45.148;39.604;2023-02-19T04:42:53;100508.31;;;6.02;77.71
52032;BME280;38044;45.148;39.604;2023-02-19T04:45:19;100502.66;;;5.93;77.39
52032;BME280;38044;45.148;39.604;2023-02-19T04:47:44;100369.47;;;5.08;77.16
52032;BME280;38044;45.148;39.604;2023-02-19T04:50:10;100507.78;;;6.15;77.47
52032;BME280;38044;45.148;39.604;2023-02-19T04:52:36;100439.06;;;5.70;76.68
52032;BME280;38044;45.148;39.604;2023-02-19T04:55:02;100483.47;;;6.06;76.67
52032;BME280;38044;45.148;39.604;2023-02-19T04:57:28;100514.28;;;6.40;76.13
52032;BME280;38044;45.148;39.604;2023-02-19T04:59:54;100529.00;;;6.52;75.72
52032;BME280;38044;45.148;39.604;2023-02-19T05:02:20;100518.88;;;6.65;75.22
52032;BME280;38044;45.148;39.604;2023-02-19T05:04:46;100492.16;;;6.85;74.19
52032;BME280;38044;45.148;39.604;2023-02-19T05:07:11;100549.31;;;7.40;73.28
52032;BME280;38044;45.148;39.604;2023-02-19T05:09:37;100534.31;;;7.70;72.40
52032;BME280;38044;45.148;39.604;2023-02-19T05:12:03;100419.72;;;7.07;71.18
52032;BME280;38044;45.148;39.604;2023-02-19T05:14:29;100502.00;;;7.36;71.94
52032;BME280;38044;45.148;39.604;2023-02-19T05:16:55;100539.72;;;7.39;72.38
52032;BME280;38044;45.148;39.604;2023-02-19T05:19:20;100558.97;;;7.41;72.68
52032;BME280;38044;45.148;39.604;2023-02-19T05:21:46;100529.03;;;7.24;72.56
52032;BME280;38044;45.148;39.604;2023-02-19T05:24:12;100514.34;;;7.11;72.93
52032;BME280;38044;45.148;39.604;2023-02-19T05:26:38;100547.19;;;7.37;72.75
52032;BME280;38044;45.148;39.604;2023-02-19T05:29:04;100543.44;;;7.49;72.59
52032;BME280;38044;45.148;39.604;2023-02-19T05:31:30;100575.53;;;7.54;72.21
52032;BME280;38044;45.148;39.604;2023-02-19T05:33:58;100518.31;;;7.29;72.01
52032;BME280;38044;45.148;39.604;2023-02-19T05:36:24;100529.28;;;7.22;72.41
52032;BME280;38044;45.148;39.604;2023-02-19T05:38:56;100456.88;;;6.78;72.80
52032;BME280;38044;45.148;39.604;2023-02-19T05:41:24;100558.44;;;7.44;73.08
52032;BME280;38044;45.148;39.604;2023-02-19T05:43:52;100541.84;;;7.48;73.09
52032;BME280;38044;45.148;39.604;2023-02-19T05:46:20;100444.06;;;6.75;72.51
52032;BME280;38044;45.148;39.604;2023-02-19T05:48:48;100456.88;;;6.83;72.44
52032;BME280;38044;45.148;39.604;2023-02-19T05:51:17;100412.00;;;6.54;72.57
52032;BME280;38044;45.148;39.604;2023-02-19T05:53:44;100582.72;;;7.74;72.54
52032;BME280;38044;45.148;39.604;2023-02-19T05:56:38;100574.63;;;7.99;71.45
52032;BME280;38044;45.148;39.604;2023-02-19T05:59:24;100575.34;;;8.20;70.86
52032;BME280;38044;45.148;39.604;2023-02-19T06:01:52;100551.31;;;8.05;70.53
52032;BME280;38044;45.148;39.604;2023-02-19T06:04:18;100554.97;;;8.24;70.45
52032;BME280;38044;45.148;39.604;2023-02-19T06:06:45;100504.72;;;8.01;69.76
52032;BME280;38044;45.148;39.604;2023-02-19T06:09:11;100548.53;;;8.30;70.03
52032;BME280;38044;45.148;39.604;2023-02-19T06:11:37;100395.31;;;7.29;70.16
52032;BME280;38044;45.148;39.604;2023-02-19T06:14:04;100568.88;;;8.31;70.31
52032;BME280;38044;45.148;39.604;2023-02-19T06:16:30;100523.34;;;8.31;69.70
52032;BME280;38044;45.148;39.604;2023-02-19T06:18:57;100568.56;;;8.88;69.12
52032;BME280;38044;45.148;39.604;2023-02-19T06:21:23;100430.34;;;8.37;67.77
52032;BME280;38044;45.148;39.604;2023-02-19T06:23:49;100587.22;;;9.66;67.21
52032;BME280;38044;45.148;39.604;2023-02-19T06:26:18;100562.59;;;9.83;66.03
52032;BME280;38044;45.148;39.604;2023-02-19T06:28:45;100589.81;;;10.25;64.80
52032;BME280;38044;45.148;39.604;2023-02-19T06:31:13;100579.13;;;10.20;64.68
52032;BME280;38044;45.148;39.604;2023-02-19T06:33:40;100484.00;;;9.78;64.28
52032;BME280;38044;45.148;39.604;2023-02-19T06:36:09;100534.28;;;10.58;63.29
52032;BME280;38044;45.148;39.604;2023-02-19T06:38:36;100552.78;;;10.97;62.48
52032;BME280;38044;45.148;39.604;2023-02-19T06:41:04;100573.59;;;11.24;62.31
52032;BME280;38044;45.148;39.604;2023-02-19T06:43:31;100565.56;;;11.05;62.58
52032;BME280;38044;45.148;39.604;2023-02-19T06:45:58;100574.81;;;10.99;62.67
52032;BME280;38044;45.148;39.604;2023-02-19T06:48:25;100554.56;;;10.88;63.07
52032;BME280;38044;45.148;39.604;2023-02-19T06:50:52;100430.25;;;9.83;63.51
52032;BME280;38044;45.148;39.604;2023-02-19T06:53:18;100563.22;;;10.47;64.37
52032;BME280;38044;45.148;39.604;2023-02-19T06:55:43;100569.34;;;10.29;64.60
52032;BME280;38044;45.148;39.604;2023-02-19T06:58:09;100540.78;;;9.90;65.39
52032;BME280;38044;45.148;39.604;2023-02-19T07:00:35;100579.47;;;9.89;65.39
52032;BME280;38044;45.148;39.604;2023-02-19T07:03:01;100542.50;;;9.81;65.51
52032;BME280;38044;45.148;39.604;2023-02-19T07:05:27;100439.19;;;9.06;65.97
52032;BME280;38044;45.148;39.604;2023-02-19T07:07:53;100575.50;;;9.81;66.49
52032;BME280;38044;45.148;39.604;2023-02-19T07:10:18;100518.38;;;9.28;67.18
52032;BME280;38044;45.148;39.604;2023-02-19T07:12:44;100553.56;;;9.50;66.82
52032;BME280;38044;45.148;39.604;2023-02-19T07:15:10;100575.91;;;9.40;67.22
52032;BME280;38044;45.148;39.604;2023-02-19T07:17:36;100590.63;;;9.48;67.91
52032;BME280;38044;45.148;39.604;2023-02-19T07:20:02;100604.63;;;9.40;68.13
52032;BME280;38044;45.148;39.604;2023-02-19T07:22:28;100588.56;;;9.35;67.86
52032;BME280;38044;45.148;39.604;2023-02-19T07:24:53;100477.63;;;8.62;67.99
52032;BME280;38044;45.148;39.604;2023-02-19T07:27:19;100576.16;;;9.44;67.78
52032;BME280;38044;45.148;39.604;2023-02-19T07:29:45;100592.81;;;9.41;67.85
52032;BME280;38044;45.148;39.604;2023-02-19T07:32:11;100604.09;;;9.38;68.71
52032;BME280;38044;45.148;39.604;2023-02-19T07:34:37;100607.78;;;9.47;68.38
52032;BME280;38044;45.148;39.604;2023-02-19T07:37:03;100574.38;;;9.34;68.26
52032;BME280;38044;45.148;39.604;2023-02-19T07:39:29;100476.75;;;9.01;67.64
52032;BME280;38044;45.148;39.604;2023-02-19T07:41:56;100610.13;;;10.07;67.23
52032;BME280;38044;45.148;39.604;2023-02-19T07:44:22;100471.22;;;9.21;66.93
52032;BME280;38044;45.148;39.604;2023-02-19T07:46:48;100562.63;;;10.07;66.45
52032;BME280;38044;45.148;39.604;2023-02-19T07:49:13;100483.75;;;9.98;65.79
52032;BME280;38044;45.148;39.604;2023-02-19T07:51:39;100603.03;;;10.83;65.62
52032;BME280;38044;45.148;39.604;2023-02-19T07:54:05;100539.03;;;10.47;65.21
52032;BME280;38044;45.148;39.604;2023-02-19T07:56:32;100567.09;;;10.93;64.43
52032;BME280;38044;45.148;39.604;2023-02-19T07:58:59;100585.09;;;11.44;63.97
52032;BME280;38044;45.148;39.604;2023-02-19T08:01:25;100593.69;;;11.92;62.52
52032;BME280;38044;45.148;39.604;2023-02-19T08:04:11;100590.09;;;11.97;62.01
52032;BME280;38044;45.148;39.604;2023-02-19T08:07:14;100595.50;;;11.97;62.37
52032;BME280;38044;45.148;39.604;2023-02-19T08:09:40;100588.66;;;11.72;62.88
52032;BME280;38044;45.148;39.604;2023-02-19T08:12:09;100483.84;;;11.01;62.92
52032;BME280;38044;45.148;39.604;2023-02-19T08:14:55;100600.47;;;11.90;62.29
52032;BME280;38044;45.148;39.604;2023-02-19T08:17:22;100589.06;;;12.48;62.15
52032;BME280;38044;45.148;39.604;2023-02-19T08:19:48;100588.72;;;13.00;60.18
52032;BME280;38044;45.148;39.604;2023-02-19T08:22:14;100491.56;;;12.55;59.84
52032;BME280;38044;45.148;39.604;2023-02-19T08:24:40;100566.31;;;13.22;58.89
52032;BME280;38044;45.148;39.604;2023-02-19T08:27:07;100480.03;;;12.40;59.08
52032;BME280;38044;45.148;39.604;2023-02-19T08:29:33;100561.81;;;12.72;59.80
52032;BME280;38044;45.148;39.604;2023-02-19T08:31:59;100461.22;;;11.90;59.85
52032;BME280;38044;45.148;39.604;2023-02-19T08:34:25;100598.06;;;12.30;61.14
52032;BME280;38044;45.148;39.604;2023-02-19T08:36:51;100597.84;;;11.85;61.42
52032;BME280;38044;45.148;39.604;2023-02-19T08:39:16;100570.22;;;11.33;62.36
52032;BME280;38044;45.148;39.604;2023-02-19T08:41:42;100551.94;;;10.83;62.81
52032;BME280;38044;45.148;39.604;2023-02-19T08:44:08;100454.72;;;10.00;63.47
52032;BME280;38044;45.148;39.604;2023-02-19T08:46:34;100449.00;;;9.88;63.65
52032;BME280;38044;45.148;39.604;2023-02-19T08:49:00;100606.00;;;10.63;64.03
52032;BME280;38044;45.148;39.604;2023-02-19T08:51:26;100605.78;;;10.59;64.03
52032;BME280;38044;45.148;39.604;2023-02-19T08:53:52;100588.84;;;10.58;64.03
52032;BME280;38044;45.148;39.604;2023-02-19T08:56:18;100596.41;;;10.56;64.67
52032;BME280;38044;45.148;39.604;2023-02-19T08:58:44;100607.59;;;10.64;64.44
52032;BME280;38044;45.148;39.604;2023-02-19T09:01:12;100602.53;;;10.62;64.16
52032;BME280;38044;45.148;39.604;2023-02-19T09:03:38;100584.63;;;10.52;63.66
52032;BME280;38044;45.148;39.604;2023-02-19T09:06:05;100561.00;;;10.30;63.90
52032;BME280;38044;45.148;39.604;2023-02-19T09:08:31;100471.25;;;9.88;64.15
52032;BME280;38044;45.148;39.604;2023-02-19T09:11:01;100576.66;;;10.66;64.15
52032;BME280;38044;45.148;39.604;2023-02-19T09:13:28;100586.03;;;10.88;63.61
52032;BME280;38044;45.148;39.604;2023-02-19T09:15:53;100596.69;;;10.93;62.97
52032;BME280;38044;45.148;39.604;2023-02-19T09:18:21;100443.47;;;9.98;63.08
52032;BME280;38044;45.148;39.604;2023-02-19T09:20:48;100579.81;;;10.87;63.07
52032;BME280;38044;45.148;39.604;2023-02-19T09:23:14;100588.47;;;11.03;63.35
52032;BME280;38044;45.148;39.604;2023-02-19T09:25:40;100583.22;;;11.12;62.68
52032;BME280;38044;45.148;39.604;2023-02-19T09:28:06;100509.88;;;10.73;62.43
52032;BME280;38044;45.148;39.604;2023-02-19T09:30:32;100434.78;;;10.44;62.49
52032;BME280;38044;45.148;39.604;2023-02-19T09:32:57;100524.06;;;11.25;62.17
52032;BME280;38044;45.148;39.604;2023-02-19T09:35:23;100575.38;;;11.76;61.21
52032;BME280;38044;45.148;39.604;2023-02-19T09:37:54;100579.81;;;11.85;60.94
52032;BME280;38044;45.148;39.604;2023-02-19T09:40:24;100566.72;;;11.65;60.92
52032;BME280;38044;45.148;39.604;2023-02-19T09:42:50;100554.53;;;11.67;61.09
52032;BME280;38044;45.148;39.604;2023-02-19T09:45:22;100560.53;;;11.78;61.33
52032;BME280;38044;45.148;39.604;2023-02-19T09:47:52;100565.28;;;11.67;61.00
52032;BME280;38044;45.148;39.604;2023-02-19T09:50:22;100553.44;;;11.55;60.83
52032;BME280;38044;45.148;39.604;2023-02-19T09:52:54;100560.69;;;11.40;61.89
52032;BME280;38044;45.148;39.604;2023-02-19T09:55:30;100487.75;;;11.09;61.80
52032;BME280;38044;45.148;39.604;2023-02-19T09:57:59;100524.22;;;11.48;60.98
52032;BME280;38044;45.148;39.604;2023-02-19T10:00:29;100443.97;;;10.90;61.65
52032;BME280;38044;45.148;39.604;2023-02-19T10:03:11;100534.75;;;11.44;61.54
52032;BME280;38044;45.148;39.604;2023-02-19T10:05:39;100492.22;;;11.00;62.17
52032;BME280;38044;45.148;39.604;2023-02-19T10:08:08;100503.50;;;11.02;62.36
52032;BME280;38044;45.148;39.604;2023-02-19T10:10:37;100453.88;;;10.62;62.69
52032;BME280;38044;45.148;39.604;2023-02-19T10:13:28;100450.09;;;10.63;63.05
52032;BME280;38044;45.148;39.604;2023-02-19T10:15:57;100536.25;;;10.90;64.26
52032;BME280;38044;45.148;39.604;2023-02-19T10:18:25;100536.06;;;11.00;63.67
52032;BME280;38044;45.148;39.604;2023-02-19T10:20:55;100526.81;;;10.74;63.71
52032;BME280;38044;45.148;39.604;2023-02-19T10:23:23;100529.16;;;10.62;64.49
52032;BME280;38044;45.148;39.604;2023-02-19T10:25:53;100393.09;;;9.71;64.70
52032;BME280;38044;45.148;39.604;2023-02-19T10:28:29;100529.56;;;10.50;64.62
52032;BME280;38044;45.148;39.604;2023-02-19T10:31:00;100492.53;;;10.28;64.80
52032;BME280;38044;45.148;39.604;2023-02-19T10:33:26;100514.31;;;10.45;64.70
52032;BME280;38044;45.148;39.604;2023-02-19T10:38:30;100506.81;;;10.61;64.99
52032;BME280;38044;45.148;39.604;2023-02-19T10:41:18;100528.75;;;10.49;64.75
52032;BME280;38044;45.148;39.604;2023-02-19T10:43:54;100522.34;;;10.26;65.48
52032;BME280;38044;45.148;39.604;2023-02-19T10:46:34;100485.63;;;9.79;66.09
52032;BME280;38044;45.148;39.604;2023-02-19T10:49:11;100528.50;;;9.84;66.48
52032;BME280;38044;45.148;39.604;2023-02-19T10:51:43;100525.47;;;9.66;66.62
52032;BME280;38044;45.148;39.604;2023-02-19T10:54:30;100517.47;;;9.61;66.86
52032;BME280;38044;45.148;39.604;2023-02-19T10:57:29;100518.63;;;9.55;66.75
52032;BME280;38044;45.148;39.604;2023-02-19T11:00:18;100379.44;;;8.47;67.06
52032;BME280;38044;45.148;39.604;2023-02-19T11:02:44;100495.97;;;9.13;67.73
52032;BME280;38044;45.148;39.604;2023-02-19T11:07:38;100517.81;;;9.31;67.77
52032;BME280;38044;45.148;39.604;2023-02-19T11:10:37;100509.47;;;9.32;68.31
52032;BME280;38044;45.148;39.604;2023-02-19T11:13:05;100488.06;;;8.98;68.92
52032;BME280;38044;45.148;39.604;2023-02-19T11:15:39;100386.22;;;8.29;69.32
52032;BME280;38044;45.148;39.604;2023-02-19T11:21:05;100486.53;;;8.87;70.84
52032;BME280;38044;45.148;39.604;2023-02-19T11:23:36;100389.22;;;8.23;71.77
52032;BME280;38044;45.148;39.604;2023-02-19T11:26:06;100498.53;;;8.94;71.59
52032;BME280;38044;45.148;39.604;2023-02-19T11:28:45;100470.50;;;8.82;71.65
52032;BME280;38044;45.148;39.604;2023-02-19T11:31:32;100507.84;;;9.07;72.14
52032;BME280;38044;45.148;39.604;2023-02-19T11:34:23;100499.97;;;9.16;71.65
52032;BME280;38044;45.148;39.604;2023-02-19T11:37:14;100410.38;;;8.93;71.77
52032;BME280;38044;45.148;39.604;2023-02-19T11:39:43;100459.09;;;9.53;71.87
52032;BME280;38044;45.148;39.604;2023-02-19T11:47:49;100321.41;;;9.53;68.00
52032;BME280;38044;45.148;39.604;2023-02-19T11:53:32;100473.28;;;10.91;67.52
52032;BME280;38044;45.148;39.604;2023-02-19T11:56:08;100463.13;;;10.88;66.91
52032;BME280;38044;45.148;39.604;2023-02-19T11:58:56;100464.53;;;10.99;66.78
52032;BME280;38044;45.148;39.604;2023-02-19T12:07:34;100432.25;;;9.96;67.53
52032;BME280;38044;45.148;39.604;2023-02-19T12:13:12;100467.06;;;10.01;68.35
52032;BME280;38044;45.148;39.604;2023-02-19T12:26:46;100475.28;;;9.43;69.73
52032;BME280;38044;45.148;39.604;2023-02-19T12:29:40;100476.66;;;9.40;70.11
52032;BME280;38044;45.148;39.604;2023-02-19T12:40:26;100484.44;;;9.13;71.90
52032;BME280;38044;45.148;39.604;2023-02-19T12:43:00;100466.22;;;8.80;72.74
52032;BME280;38044;45.148;39.604;2023-02-19T12:45:43;100491.34;;;8.90;73.91
52032;BME280;38044;45.148;39.604;2023-02-19T12:48:24;100353.25;;;7.95;73.77
52032;BME280;38044;45.148;39.604;2023-02-19T12:51:06;100504.81;;;8.85;73.76
52032;BME280;38044;45.148;39.604;2023-02-19T12:56:12;100506.72;;;8.79;73.91
52032;BME280;38044;45.148;39.604;2023-02-19T12:58:44;100499.50;;;8.74;73.69
52032;BME280;38044;45.148;39.604;2023-02-19T13:01:17;100510.00;;;8.71;73.90
52032;BME280;38044;45.148;39.604;2023-02-19T13:07:03;100503.84;;;8.70;73.81
52032;BME280;38044;45.148;39.604;2023-02-19T13:09:46;100380.13;;;7.79;73.75
52032;BME280;38044;45.148;39.604;2023-02-19T13:12:19;100439.91;;;8.09;74.11
52032;BME280;38044;45.148;39.604;2023-02-19T13:17:39;100518.88;;;8.61;74.26
52032;BME280;38044;45.148;39.604;2023-02-19T13:20:29;100374.31;;;7.67;74.52
52032;BME280;38044;45.148;39.604;2023-02-19T13:33:53;100490.84;;;7.94;78.26
52032;BME280;38044;45.148;39.604;2023-02-19T13:36:27;100520.78;;;8.06;79.18
52032;BME280;38044;45.148;39.604;2023-02-19T13:38:55;100524.56;;;7.95;79.93
52032;BME280;38044;45.148;39.604;2023-02-19T13:41:28;100466.41;;;7.56;80.47
52032;BME280;38044;45.148;39.604;2023-02-19T13:43:58;100379.94;;;6.85;81.10
52032;BME280;38044;45.148;39.604;2023-02-19T13:46:32;100322.84;;;6.56;81.58
52032;BME280;38044;45.148;39.604;2023-02-19T13:51:50;100489.41;;;7.47;82.32
52032;BME280;38044;45.148;39.604;2023-02-19T13:54:35;100370.34;;;6.79;83.06
52032;BME280;38044;45.148;39.604;2023-02-19T13:59:47;100485.16;;;7.35;83.57
52032;BME280;38044;45.148;39.604;2023-02-19T14:05:07;100469.38;;;7.39;83.75
52032;BME280;38044;45.148;39.604;2023-02-19T14:07:52;100496.88;;;7.55;83.83
52032;BME280;38044;45.148;39.604;2023-02-19T14:10:49;100493.69;;;7.53;83.81
52032;BME280;38044;45.148;39.604;2023-02-19T14:19:15;100385.56;;;6.79;83.26
52032;BME280;38044;45.148;39.604;2023-02-19T14:21:41;100495.28;;;7.49;83.14
52032;BME280;38044;45.148;39.604;2023-02-19T14:24:13;100483.00;;;7.37;83.04
52032;BME280;38044;45.148;39.604;2023-02-19T14:26:40;100448.31;;;7.12;82.51
52032;BME280;38044;45.148;39.604;2023-02-19T14:29:07;100339.91;;;6.54;82.31
52032;BME280;38044;45.148;39.604;2023-02-19T14:31:38;100509.69;;;7.58;82.12
52032;BME280;38044;45.148;39.604;2023-02-19T14:34:13;100507.56;;;7.55;81.91
52032;BME280;38044;45.148;39.604;2023-02-19T14:36:42;100485.69;;;7.37;81.29
52032;BME280;38044;45.148;39.604;2023-02-19T14:39:13;100485.13;;;7.40;81.53
52032;BME280;38044;45.148;39.604;2023-02-19T14:41:43;100476.06;;;7.31;81.32
52032;BME280;38044;45.148;39.604;2023-02-19T14:44:22;100509.19;;;7.51;80.93
52032;BME280;38044;45.148;39.604;2023-02-19T14:54:59;100491.31;;;7.36;80.17
52032;BME280;38044;45.148;39.604;2023-02-19T14:57:28;100375.44;;;6.65;79.98
52032;BME280;38044;45.148;39.604;2023-02-19T14:59:57;100508.66;;;7.43;79.90
52032;BME280;38044;45.148;39.604;2023-02-19T15:02:24;100511.88;;;7.51;79.74